LPLACYQB

Guest
Details From LPLA - LAJES
To CYQB - Quebec Jean Lesage Intl
Flight Number -
Tags generated
Created
Modified
Stats Distance 2,107 nm / 3,902 km
Max Altitude 35,000 ft / 10,668 m
Waypoints 14
Social Downloads 1
Likes 0
Share VATSIM

Download

Looking for another format? Having issues loading an existing format? Contact us
Advertisement - Login to hide

Notes

Using NAT tracks from 29/7/2016 Basic altitude profile: - Ascent Rate: 2500ft/min - Ascent Speed: 250kts - Cruise Altitude: 35000ft - Cruise Speed: 420kts - Descent Rate: 1500ft/min - Descent Speed: 250kts Options: - Use NATs: yes - Use PACOTS: yes - Use low airways: yes - Use high airways: yes

Route

LPLA SIPRU H125 LUKAL 4300N03500W +46.000_--40.000 F JAROM N21C LOMPI N54E TOPPS J506 MLT V314 PATTA CYQB

ID Type Via Altitude Latitude Longitude Leg Dist Tot Dist Heading (true) Name
O LPLA APT - 0 ft / 0 m 38.76441˚ -27.09348˚ - 0 nm - LAJES
SIPRU FIX - 14,900 ft / 4,542 m 39.18000˚ -27.88944˚ 44 nm 44 nm 304° / 304° -
LUKIT FIX H125 (AWY-LO) 28,500 ft / 8,687 m 40.19694˚ -30.00000˚ 115 nm 159 nm 303° / 301° -
LUKAL FIX H125 (AWY-HI) 28,500 ft / 8,687 m 41.25306˚ -32.35583˚ 124 nm 284 nm 301° / 300° -
4300N03500W LATLON - 34,000 ft / 10,363 m 43.00000˚ -35.00000˚ 157 nm 442 nm 313° / 311° -
+46.000_--40.000 LATLON - 34,000 ft / 10,363 m 46.00000˚ -40.00000˚ 279 nm 721 nm 312° / 308° -
+44.000_--50.000 LATLON F (NAT) 35,000 ft / 10,668 m 44.00000˚ -50.00000˚ 440 nm 1162 nm 258° / 251° -
BOBTU FIX F (NAT) 35,000 ft / 10,668 m 44.11722˚ -52.82222˚ 122 nm 1284 nm 274° / 272° -
JAROM FIX F (NAT) 35,000 ft / 10,668 m 44.16667˚ -54.88333˚ 88 nm 1373 nm 273° / 271° -
LOMPI FIX N21C (AWY-HI) 34,000 ft / 10,363 m 44.00000˚ -57.00000˚ 91 nm 1465 nm 264° / 263° -
TOPPS FIX N54E (AWY-HI) 34,000 ft / 10,363 m 45.34018˚ -67.73864˚ 465 nm 1930 nm 284° / 276° -
MLT VOR J506 (AWY-HI) 28,900 ft / 8,809 m 45.58672˚ -68.51547˚ 35 nm 1966 nm 295° / 294° MILLINOCKET VOR-DME
PATTA FIX V314 (AWY-LO) 18,000 ft / 5,486 m 45.98223˚ -69.59620˚ 51 nm 2017 nm 298° / 297° -
O CYQB APT - 0 ft / 0 m 46.78946˚ -71.39276˚ 88 nm 2106 nm 304° / 302° Quebec Jean Lesage Intl

Altitude Profile

Advertisement - Login to hide

Weather


0- 5 10 15 20 25 30 35+ Temperature / ° C

Clouds and Precipitation
Forecast for 2017-12-14 06:00 UTC. Updated an hour ago

Ground ~20,000 ft ~40,000 ft Winds

LPLA

Details ICAO LPLA (TER)
Name LAJES
Region Portugal
Timezone Atlantic/Azores (UTC-1.0)
Stats Elevation 180 ft / 55 m (AMSL)
Location 38.764410° -27.093482°
Runways 1
Magnetic Variation 8.935° W

METAR

LPLA 140200Z /////KT 9999 FEW014 BKN025 17/15 Q1032

Decode

TAF

TAF LPLA 132300Z 1400/1424 25008KT 9999 FEW015 BKN025= TAF LPPD 132300Z 1400/1424 VRB05KT 9999 SCT008 SCT015 TEMPO 1400/1415 5000 -RADZ BR SCT004 BKN008 BECMG 1406/1409 27008KT

Decode

Departure Runways

ID Width Length Bearing (true) Bearing (mag) Surface Threshold Offset Overrun Length
15 197 ft / 60 m 10,869 ft / 3,313 m 140.81° 149.74° Asphalt 0 ft / 0 m 991 ft / 302 m
33 197 ft / 60 m 10,869 ft / 3,313 m 320.82° 329.75° Asphalt 0 ft / 0 m 1,040 ft / 317 m

CYQB

Details ICAO CYQB (YQB)
Name Quebec Jean Lesage Intl
Region Canada
Timezone America/Montreal (UTC-5.0)
Stats Elevation 244 ft / 74 m (AMSL)
Location 46.789458° -71.392764°
Runways 2
Magnetic Variation 15.837° W

METAR

CYQB 140200Z 26017G23KT 15SM VCSH DRSN FEW033 SCT072 SCT160 M13/M18 A2923 RMK SC2AC1AC1 CVCTV CLDS EMBD SLP904

Decode

TAF

TAF TAF CYQB 132341Z 1400/1424 27020G30KT P6SM -SN FEW020 OVC070 TEMPO 1400/1404 5SM -SN BKN020 OVC070 FM140400 27020G30KT P6SM BKN040 TEMPO 1404/1424 6SM -SN BKN020 RMK NXT FCST BY 140600Z

Decode

Destination Runways

ID Width Length Bearing (true) Bearing (mag) Surface Threshold Offset Overrun Length
06 150 ft / 46 m 9,020 ft / 2,749 m 44.00° 59.84° Asphalt 0 ft / 0 m 0 ft / 0 m
12 150 ft / 46 m 5,678 ft / 1,731 m 97.58° 113.42° Asphalt 0 ft / 0 m 0 ft / 0 m
24 150 ft / 46 m 9,020 ft / 2,749 m 224.02° 239.86° Asphalt 0 ft / 0 m 0 ft / 0 m
30 150 ft / 46 m 5,678 ft / 1,731 m 277.60° 293.44° Asphalt 0 ft / 0 m 0 ft / 0 m

Approach Navaids

Runway Type Ident Frequency Range Bearing (true) Bearing (mag) Slope Elevation
06 Localiser IQB 109.50 MHz 18 nm / 33 km 44.33° 60.17° - 197 ft / 60 m (AMSL)
06 Glidescope IQB 109.50 MHz 18 nm / 33 km 42.00° 57.84° 3.00° 233 ft / 71 m (AMSL)